Data for 11/05/2009

Time Sea-Level Adjusted Pressure Absolute Pressure Temperature Relative Humidity Dew Point   
(mb) (inHg) (mb) (inHg) (C) (F) (%) (C) (F)
00:05 1019 30.09 848 25.04 5.7 42.2 36 -8.1 17.3
00:10 1019 30.09 848 25.04 5.8 42.4 36 -8.1 17.4
00:15 1019 30.09 848 25.04 5.6 42.1 37 -8.1 17.4
00:20 1019 30.09 848 25.04 5.9 42.7 33 -9.1 15.7
00:25 1019 30.09 848 25.04 6.6 43.8 33 -8.7 16.3
00:30 1019 30.09 848 25.04 6.6 44 33 -8.5 16.7
00:35 1019 30.09 848 25.04 6.3 43.3 36 -7.8 17.9
00:40 1019 30.09 848 25.04 5.4 41.7 38 -7.7 18.1
00:45 1019 30.09 848 25.04 4.9 40.9 40 -7.7 18.2
00:50 1019 30.09 848 25.04 5 40.9 35 -9.1 15.6
00:55 1019 30.09 848 25.04 6.6 43.8 33 -8.7 16.3
01:00 1019 30.09 848 25.04 6.4 43.5 34 -8.5 16.7
01:05 1019 30.09 848 25.04 6.1 43 34 -8.5 16.8
01:10 1019 30.09 848 25.04 6.7 44.1 32 -8.7 16.4
01:15 1019 30.09 848 25.04 6.3 43.4 35 -8 17.6
01:20 1019 30.09 848 25.04 5.4 41.7 39 -7.6 18.3
01:25 1019 30.09 848 25.04 5 40.9 39 -7.9 17.8
01:30 1019 30.09 848 25.04 5 41 39 -7.7 18.2
01:35 1019 30.09 848 25.04 4.8 40.7 39 -8.1 17.4
01:40 1019 30.09 848 25.04 5.4 41.7 36 -8.5 16.7
01:45 1019 30.09 848 25.04 6.2 43.1 33 -9 15.8
01:50 1019 30.09 848 25.04 6.8 44.3 32 -8.8 16.2
01:55 1019 30.09 848 25.04 6.9 44.4 33 -8.5 16.7
02:00 1019 30.09 848 25.04 6.7 44 34 -8.2 17.2
02:05 1019 30.09 848 25.04 6.4 43.6 34 -8.5 16.8
02:10 1019 30.09 848 25.04 6.2 43.2 35 -8.1 17.3
02:15 1019 30.09 848 25.04 5.7 42.3 37 -7.8 17.9
02:20 1019 30.09 848 25.04 5 41 40 -7.7 18.2
02:25 1019 30.09 848 25.04 4.8 40.7 39 -8.1 17.5
02:30 1019 30.09 848 25.04 5.4 41.8 36 -8.4 16.9
02:35 1019 30.09 848 25.04 5.9 42.6 36 -8 17.7
02:40 1019 30.09 848 25.04 5.8 42.4 35 -8.4 16.9
02:45 1019 30.09 848 25.04 5.8 42.4 36 -8.3 17
02:50 1019 30.09 848 25.04 5.8 42.5 35 -8.6 16.6
02:55 1018 30.06 848 25.04 5.9 42.6 34 -8.7 16.3
03:00 1018 30.06 848 25.04 6.1 42.9 35 -8.2 17.2
03:05 1018 30.06 848 25.04 5.7 42.3 38 -7.4 18.7
03:10 1018 30.06 848 25.04 5.3 41.5 39 -7.7 18.1
03:15 1018 30.06 847 25.01 5.1 41.1 40 -7.5 18.6
03:20 1018 30.06 847 25.01 5.1 41.3 35 -8.9 16
03:25 1018 30.06 847 25.01 6.3 43.4 33 -8.9 16
03:30 1018 30.06 847 25.01 6.6 43.8 33 -8.6 16.6
03:35 1018 30.06 847 25.01 6.5 43.7 33 -8.5 16.7
03:40 1018 30.06 847 25.01 6.6 43.9 34 -8 17.6
03:45 1018 30.06 847 25.01 6.3 43.4 34 -8.2 17.2
03:50 1018 30.06 847 25.01 6.5 43.7 33 -8.6 16.4
03:55 1018 30.06 847 25.01 6.4 43.5 36 -7.6 18.3
04:00 1018 30.06 847 25.01 5.7 42.2 36 -8.2 17.3
04:05 1018 30.06 847 25.01 5.6 42 39 -7.3 18.8
04:10 1018 30.06 847 25.01 5.5 41.9 38 -7.8 18
04:15 1018 30.06 847 25.01 5.9 42.6 34 -8.8 16.2
04:20 1018 30.06 847 25.01 6.6 43.8 33 -8.6 16.6
04:25 1018 30.06 847 25.01 6.6 43.9 33 -8.6 16.6
04:30 1018 30.06 847 25.01 6.3 43.3 36 -7.6 18.2
04:35 1018 30.06 847 25.01 6.1 43.1 34 -8.7 16.3
04:40 1018 30.06 847 25.01 6.5 43.7 34 -8.3 17.1
04:45 1018 30.06 847 25.01 6.2 43.1 36 -7.8 17.9
04:50 1018 30.06 847 25.01 5.7 42.3 35 -8.5 16.7
04:55 1018 30.06 847 25.01 6.4 43.6 34 -8.3 17.1
05:00 1018 30.06 847 25.01 6.1 43.1 35 -8 17.5
05:05 1018 30.06 847 25.01 5.6 42.1 36 -8.4 16.8
05:10 1018 30.06 847 25.01 6 42.8 37 -7.6 18.3
05:15 1017 30.03 847 25.01 5.5 41.9 39 -7.4 18.6
05:20 1017 30.03 847 25.01 5.5 42 38 -7.7 18.1
05:25 1017 30.03 847 25.01 5.7 42.3 36 -8.4 16.9
05:30 1017 30.03 847 25.01 6.4 43.5 33 -8.7 16.4
05:35 1017 30.03 847 25.01 6.7 44.1 33 -8.6 16.6
05:40 1018 30.06 847 25.01 6.4 43.5 35 -8 17.5
05:45 1018 30.06 847 25.01 6.6 43.8 33 -8.8 16.2
05:50 1018 30.06 847 25.01 7 44.6 31 -9 15.7
05:55 1018 30.06 847 25.01 7.1 44.7 33 -8.2 17.2
06:00 1018 30.06 847 25.01 6.7 44 35 -7.7 18.2
06:05 1018 30.06 847 25.01 5 41 46 -5.6 21.9
06:10 1018 30.06 847 25.01 4.5 40.1 38 -8.6 16.5
06:15 1017 30.03 847 25.01 5.9 42.6 37 -7.6 18.4
06:20 1017 30.03 847 25.01 6 42.7 36 -8.1 17.3
06:25 1017 30.03 847 25.01 5.9 42.7 36 -7.9 17.7
06:30 1017 30.03 847 25.01 6.1 43 35 -8.3 17
06:35 1017 30.03 847 25.01 5.7 42.2 35 -8.5 16.7
06:40 1017 30.03 847 25.01 5.6 42.2 36 -8.1 17.4
06:45 1017 30.03 847 25.01 5.4 41.7 36 -8.4 16.9
06:50 1017 30.03 847 25.01 5.4 41.6 37 -8.2 17.3
06:55 1017 30.03 847 25.01 5.2 41.3 39 -7.6 18.3
07:00 1017 30.03 846 24.98 4.9 40.9 39 -8 17.6
07:05 1017 30.03 846 24.98 4.9 40.9 39 -7.9 17.9
07:10 1017 30.03 846 24.98 4.9 40.8 39 -7.9 17.8
07:15 1017 30.03 846 24.98 4.6 40.4 40 -7.9 17.8
07:20 1017 30.03 846 24.98 4.8 40.6 39 -8 17.6
07:25 1017 30.03 847 25.01 4.9 40.7 38 -8.2 17.2
07:30 1017 30.03 847 25.01 5.1 41.3 37 -8.4 16.9
07:35 1017 30.03 846 24.98 5.2 41.4 38 -8.1 17.4
07:40 1017 30.03 846 24.98 5.4 41.8 36 -8.5 16.8
07:45 1017 30.03 846 24.98 6.2 43.2 33 -8.9 16
07:50 1017 30.03 846 24.98 6.8 44.2 32 -8.8 16.2
07:55 1017 30.03 846 24.98 6.9 44.4 33 -8.5 16.8
08:00 1017 30.03 846 24.98 6.9 44.5 33 -8.4 16.8
08:05 1017 30.03 846 24.98 7 44.6 33 -8.2 17.2
08:10 1017 30.03 847 25.01 7.2 45 33 -8.2 17.3
08:15 1017 30.03 847 25.01 7.2 45 33 -7.9 17.8
08:20 1017 30.03 847 25.01 7.3 45.1 33 -8.1 17.4
08:25 1017 30.03 847 25.01 7.6 45.6 32 -8.1 17.5
08:30 1017 30.03 847 25.01 8.3 46.9 31 -8 17.7
08:35 1018 30.06 847 25.01 8.6 47.4 30 -8 17.6
08:40 1017 30.03 847 25.01 8.9 47.9 30 -7.8 17.9
08:45 1017 30.03 847 25.01 9.5 49.1 29 -7.4 18.6
08:50 1017 30.03 847 25.01 9.8 49.6 30 -7 19.3
08:55 1017 30.03 847 25.01 10 50.1 29 -7.1 19.1
09:00 1017 30.03 847 25.01 10.3 50.6 29 -6.8 19.7
09:05 1017 30.03 847 25.01 10.1 50.2 30 -6.9 19.6
09:10 1017 30.03 846 24.98 10.3 50.6 29 -6.9 19.5
09:15 1017 30.03 847 25.01 11.1 52 27 -7.2 19
09:20 1017 30.03 846 24.98 11.1 52 27 -7.2 19
09:25 1017 30.03 846 24.98 11.1 51.9 26 -7.7 18.2
09:30 1017 30.03 846 24.98 11.2 52.1 26 -7.8 17.9
09:35 1017 30.03 846 24.98 12.1 53.8 26 -6.8 19.8
09:40 1017 30.03 846 24.98 12.1 53.7 28 -6 21.1
09:45 1017 30.03 846 24.98 12.7 54.8 27 -5.9 21.5
09:50 1017 30.03 846 24.98 12.3 54.2 26 -6.8 19.7
09:55 1017 30.03 846 24.98 12.5 54.4 26 -6.5 20.3
10:00 1017 30.03 846 24.98 12.8 55.1 25 -6.5 20.3
10:05 1017 30.03 846 24.98 13.1 55.5 25 -6.3 20.6
10:10 1017 30.03 846 24.98 14.1 57.3 22 -7.2 19
10:15 1017 30.03 846 24.98 14.5 58 23 -6.6 20.1
10:20 1017 30.03 846 24.98 14.5 58.1 22 -7 19.5
10:25 1017 30.03 846 24.98 15.3 59.5 21 -6.7 20
10:30 1016 30 846 24.98 15.6 60.1 20 -7.1 19.2
10:35 1016 30 846 24.98 15.9 60.7 20 -6.9 19.5
10:40 1016 30 846 24.98 16.4 61.6 20 -6.7 20
10:45 1016 30 846 24.98 16.5 61.7 20 -6.5 20.3
10:50 1016 30 846 24.98 16.2 61.2 19 -7.1 19.3
10:55 1016 30 845 24.95 16.4 61.5 18 -8.1 17.4
11:00 1016 30 845 24.95 17.2 62.9 17 -8 17.7
11:05 1016 30 845 24.95 17.4 63.4 17 -7.6 18.4
11:10 1016 30 845 24.95 17.8 64.1 15 -8.7 16.4
11:15 1016 30 845 24.95 17.8 64 16 -7.9 17.8
11:20 1016 30 845 24.95 17.7 63.9 15 -8.9 16
11:25 1016 30 845 24.95 18.4 65.1 15 -8.6 16.5
11:30 1016 30 845 24.95 19.1 66.4 15 -8.1 17.5
11:35 1016 30 845 24.95 18.6 65.5 15 -8.6 16.5
11:40 1016 30 845 24.95 18.8 65.8 18 -6.2 20.8
11:45 1016 30 845 24.95 18.3 65 17 -7.1 19.2
11:50 1016 30 845 24.95 18.5 65.3 18 -6.3 20.7
11:55 1015 29.97 845 24.95 18.6 65.4 18 -6.4 20.5
12:00 1015 29.97 845 24.95 19 66.1 17 -6.6 20.2
12:05 1015 29.97 845 24.95 19.4 66.8 16 -6.8 19.8
12:10 1015 29.97 844 24.92 19.5 67.2 17 -5.9 21.3
12:15 1015 29.97 844 24.92 19.6 67.2 18 -5.6 21.9
12:20 1015 29.97 844 24.92 18.8 65.9 23 -2.4 27.6
12:25 1015 29.97 844 24.92 18 64.4 23 -3.6 25.5
12:30 1015 29.97 844 24.92 18 64.4 25 -2.2 28
12:35 1015 29.97 844 24.92 17.1 62.7 27 -2.1 28.2
12:40 1015 29.97 844 24.92 16.3 61.3 25 -3.5 25.6
12:45 1015 29.97 844 24.92 16.7 62.1 26 -2.9 26.8
12:50 1015 29.97 844 24.92 16.5 61.7 27 -2.4 27.6
12:55 1015 29.97 844 24.92 15.7 60.3 26 -3.8 25.2
13:00 1015 29.97 844 24.92 15.6 60 25 -4.2 24.4
13:05 1014 29.94 844 24.92 15.6 60.1 25 -4.4 24.1
13:10 1014 29.94 843 24.89 15.9 60.7 23 -5 23.1
13:15 1014 29.94 843 24.89 16.2 61.2 23 -4.9 23.1
13:20 1014 29.94 843 24.89 16.4 61.5 21 -5.6 21.8
13:25 1014 29.94 843 24.89 16.8 62.2 20 -6.1 21
13:30 1014 29.94 843 24.89 17.8 64 18 -6.8 19.8
13:35 1014 29.94 843 24.89 18.2 64.8 18 -6.3 20.6
13:40 1014 29.94 843 24.89 19.1 66.4 16 -7.6 18.4
13:45 1014 29.94 843 24.89 18.5 65.3 17 -7 19.4
13:50 1013 29.91 843 24.89 18.3 64.9 18 -6.1 21
13:55 1013 29.91 843 24.89 18.9 65.9 17 -6.9 19.6
14:00 1013 29.91 843 24.89 19.6 67.3 16 -6.6 20.1
14:05 1013 29.91 843 24.89 19.9 67.8 15 -7.2 19
14:10 1013 29.91 843 24.89 20.2 68.3 15 -7.2 19.1
14:15 1013 29.91 842 24.86 20.4 68.8 15 -6.5 20.2
14:20 1013 29.91 842 24.86 20.4 68.7 15 -6.7 19.9
14:25 1013 29.91 842 24.86 20.2 68.3 15 -7.2 19
14:30 1013 29.91 842 24.86 19.9 67.9 15 -7.1 19.2
14:35 1013 29.91 842 24.86 20.5 68.9 15 -6.9 19.5
14:40 1013 29.91 842 24.86 20.4 68.7 16 -6.4 20.4
14:45 1013 29.91 842 24.86 20.1 68.1 15 -7 19.3
14:50 1013 29.91 842 24.86 19.9 67.7 14 -8.2 17.3
14:55 1013 29.91 842 24.86 19.6 67.3 15 -7.2 19
15:00 1013 29.91 842 24.86 19.4 67 15 -7.9 17.7
15:05 1013 29.91 842 24.86 19.5 67.1 13 -9.5 14.9
15:10 1013 29.91 842 24.86 19.4 67 14 -9.1 15.6
15:15 1013 29.91 842 24.86 19.7 67.5 12 -10 13.9
15:20 1013 29.91 842 24.86 19.9 67.9 13 -9 15.8
15:25 1013 29.91 842 24.86 20 68 13 -9.6 14.7
15:30 1013 29.91 842 24.86 20 67.9 13 -9.5 14.9
15:35 1013 29.91 842 24.86 19.9 67.7 13 -9.3 15.2
15:40 1013 29.91 842 24.86 19.6 67.3 12 -10.1 13.8
15:45 1013 29.91 842 24.86 19.3 66.8 13 -9.4 15.1
15:50 1013 29.91 842 24.86 19.3 66.7 12 -10.4 13.2
15:55 1013 29.91 842 24.86 19.1 66.5 14 -9 15.8
16:00 1013 29.91 842 24.86 18.7 65.6 14 -9.4 15.2
16:05 1013 29.91 842 24.86 18.9 66 14 -8.7 16.3
16:10 1013 29.91 842 24.86 18.6 65.6 14 -9.1 15.7
16:15 1013 29.91 842 24.86 19 66.1 14 -8.9 16
16:20 1013 29.91 842 24.86 18.8 65.8 14 -9.6 14.6
16:25 1013 29.91 842 24.86 18.8 65.8 14 -9.3 15.3
16:30 1013 29.91 842 24.86 18.6 65.4 13 -10.6 13
16:35 1013 29.91 842 24.86 18.6 65.5 14 -9.1 15.6
16:40 1013 29.91 842 24.86 18.2 64.7 14 -9.4 15
16:45 1013 29.91 842 24.86 17.9 64.3 15 -9.3 15.3
16:50 1012 29.88 842 24.86 17.5 63.4 15 -9.2 15.4
16:55 1012 29.88 842 24.86 17.1 62.8 16 -8.7 16.3
17:00 1012 29.88 841 24.83 16.9 62.5 17 -7.9 17.7
17:05 1012 29.88 841 24.83 16.6 61.9 17 -8.6 16.6
17:10 1012 29.88 841 24.83 16.6 62 17 -8.4 16.9
17:15 1012 29.88 841 24.83 16.6 61.9 17 -8.8 16.1
17:20 1012 29.88 841 24.83 16.5 61.7 17 -8.8 16.1
17:25 1012 29.88 841 24.83 16.7 62 15 -9.8 14.4
17:30 1012 29.88 841 24.83 16.8 62.3 15 -10.3 13.5
17:35 1012 29.88 841 24.83 16.8 62.2 15 -9.7 14.6
17:40 1012 29.88 841 24.83 16.3 61.4 16 -9.2 15.4
17:45 1012 29.88 841 24.83 16.3 61.3 15 -10.2 13.7
17:50 1012 29.88 841 24.83 16.7 62 15 -9.9 14.2
17:55 1012 29.88 841 24.83 16.5 61.6 15 -10 14
18:00 1012 29.88 841 24.83 16.5 61.8 15 -9.8 14.4
18:05 1012 29.88 841 24.83 16.4 61.4 15 -10.1 13.9
18:10 1012 29.88 841 24.83 16.3 61.4 15 -10 14
18:15 1012 29.88 841 24.83 16.4 61.5 16 -9.2 15.4
18:20 1012 29.88 841 24.83 16.4 61.4 16 -9.8 14.4
18:25 1012 29.88 841 24.83 16.5 61.7 16 -9.1 15.6
18:30 1012 29.88 841 24.83 16.6 61.8 15 -9.7 14.5
18:35 1012 29.88 841 24.83 16.5 61.7 18 -7.8 17.9
18:40 1012 29.88 841 24.83 16.6 61.8 15 -10.1 13.9
18:45 1012 29.88 841 24.83 16.7 62.1 15 -9.9 14.1
18:50 1012 29.88 841 24.83 16.7 62 15 -10.1 13.9
18:55 1012 29.88 841 24.83 16.7 62.1 15 -10 14
19:00 1012 29.88 841 24.83 16.9 62.4 15 -9.7 14.6
19:05 1012 29.88 841 24.83 16.4 61.6 16 -9.6 14.7
19:10 1012 29.88 841 24.83 16.5 61.6 16 -9 15.8
19:15 1011 29.85 841 24.83 16.3 61.3 17 -9 15.8
19:20 1011 29.85 841 24.83 16.3 61.3 16 -9.6 14.7
19:25 1011 29.85 841 24.83 16.4 61.5 17 -8.8 16.2
19:30 1011 29.85 840 24.81 16.2 61.1 16 -9.8 14.3
19:35 1011 29.85 840 24.81 16.3 61.3 17 -9 15.7
19:40 1011 29.85 840 24.81 16.3 61.3 17 -8.9 16
19:45 1011 29.85 840 24.81 16.1 61.1 17 -8.8 16.2
19:50 1011 29.85 840 24.81 16 60.8 17 -8.7 16.3
19:55 1011 29.85 840 24.81 16.1 60.9 17 -9.1 15.6
20:00 1011 29.85 840 24.81 15.9 60.7 17 -8.9 16
20:05 1011 29.85 840 24.81 15.8 60.5 17 -9.2 15.4
20:10 1011 29.85 840 24.81 15.6 60.2 18 -8.5 16.7
20:15 1011 29.85 841 24.83 15.3 59.5 18 -8.7 16.3
20:20 1011 29.85 841 24.83 15 59 19 -8.1 17.4
20:25 1011 29.85 840 24.81 14.9 58.7 18 -9.2 15.4
20:30 1011 29.85 840 24.81 15.2 59.4 18 -8.7 16.3
20:35 1011 29.85 840 24.81 15.1 59.1 19 -8.5 16.7
20:40 1011 29.85 840 24.81 15 58.9 19 -8.6 16.5
20:45 1011 29.85 840 24.81 15.1 59.2 18 -8.9 15.9
20:50 1011 29.85 840 24.81 15.3 59.6 18 -9.1 15.6
20:55 1011 29.85 840 24.81 15.5 60 18 -9 15.9
21:00 1011 29.85 840 24.81 15.6 60.1 17 -9 15.8
21:05 1011 29.85 840 24.81 15.6 60.1 18 -8.8 16.1
21:10 1011 29.85 840 24.81 15.6 60.1 17 -9 15.9
21:15 1011 29.85 840 24.81 15.6 60.1 18 -8.8 16.2
21:20 1011 29.85 840 24.81 15.5 59.9 18 -8.6 16.5
21:25 1011 29.85 840 24.81 15.4 59.7 18 -8.6 16.6
21:30 1011 29.85 840 24.81 15.4 59.7 18 -8.8 16.2
21:35 1011 29.85 840 24.81 15.5 59.8 18 -8.9 15.9
21:40 1011 29.85 841 24.83 15.6 60.1 18 -8.8 16.2
21:45 1011 29.85 841 24.83 15.6 60 19 -7.6 18.3
21:50 1011 29.85 841 24.83 15.1 59.2 19 -8 17.6
21:55 1011 29.85 841 24.83 14.8 58.6 19 -8.4 16.9
22:00 1011 29.85 841 24.83 14.8 58.6 20 -7.9 17.8
22:05 1011 29.85 841 24.83 14.4 57.9 23 -6.5 20.4
22:10 1011 29.85 841 24.83 13.9 57 21 -8.3 17.1
22:15 1011 29.85 841 24.83 14.2 57.6 21 -7.9 17.7
22:20 1011 29.85 840 24.81 14.2 57.6 21 -8 17.5
22:25 1011 29.85 840 24.81 14 57.2 21 -8 17.6
22:30 1011 29.85 840 24.81 14 57.2 22 -7.1 19.2
22:35 1011 29.85 840 24.81 13.7 56.7 23 -7.3 18.9
22:40 1011 29.85 840 24.81 13.5 56.3 24 -6.9 19.7
22:45 1011 29.85 840 24.81 13.2 55.8 25 -6.6 20.2
22:50 1011 29.85 840 24.81 13.3 55.9 23 -7.1 19.2
22:55 1011 29.85 840 24.81 13.5 56.2 24 -6.5 20.3
23:00 1010 29.83 840 24.81 13.4 56.1 24 -6.5 20.4
23:05 1010 29.83 840 24.81 13.3 56 22 -7.8 18
23:10 1010 29.83 839 24.78 14.1 57.4 21 -7.6 18.4
23:15 1010 29.83 839 24.78 14.3 57.7 23 -6.6 20.1
23:20 1010 29.83 839 24.78 14 57.2 22 -7.1 19.2
23:25 1010 29.83 839 24.78 14.7 58.4 21 -7.2 19.1
23:30 1010 29.83 839 24.78 14.7 58.4 22 -6.9 19.5
23:35 1010 29.83 839 24.78 14.4 58 22 -7.2 19
23:40 1010 29.83 839 24.78 14.5 58.1 21 -7.6 18.3
23:45 1010 29.83 839 24.78 14.4 57.9 21 -7.4 18.7
23:50 1010 29.83 839 24.78 14.5 58 21 -7.3 18.9
23:55 1010 29.83 839 24.78 14.4 58 22 -7.1 19.2
24:00 1010 29.83 839 24.78 14.5 58 22 -7 19.5